sensor_id;sensor_type;location;lat;lon;timestamp;P1;durP1;ratioP1;P2;durP2;ratioP2
76848;SDS011;65814;51.134;16.980;2023-04-08T00:01:28;16.30;;;9.60;;
76848;SDS011;65814;51.134;16.980;2023-04-08T00:03:56;16.40;;;11.10;;
76848;SDS011;65814;51.134;16.980;2023-04-08T00:06:25;17.80;;;11.50;;
76848;SDS011;65814;51.134;16.980;2023-04-08T00:08:53;14.30;;;9.70;;
76848;SDS011;65814;51.134;16.980;2023-04-08T00:11:22;16.50;;;10.00;;
76848;SDS011;65814;51.134;16.980;2023-04-08T00:13:50;18.00;;;9.80;;
76848;SDS011;65814;51.134;16.980;2023-04-08T00:16:18;19.90;;;11.00;;
76848;SDS011;65814;51.134;16.980;2023-04-08T00:18:47;23.20;;;12.70;;
76848;SDS011;65814;51.134;16.980;2023-04-08T00:21:16;20.50;;;12.50;;
76848;SDS011;65814;51.134;16.980;2023-04-08T00:23:46;22.90;;;13.00;;
76848;SDS011;65814;51.134;16.980;2023-04-08T00:26:15;24.60;;;12.50;;
76848;SDS011;65814;51.134;16.980;2023-04-08T00:28:43;20.50;;;12.30;;
76848;SDS011;65814;51.134;16.980;2023-04-08T00:31:11;21.50;;;11.30;;
76848;SDS011;65814;51.134;16.980;2023-04-08T00:33:39;21.30;;;12.10;;
76848;SDS011;65814;51.134;16.980;2023-04-08T00:36:07;23.90;;;12.00;;
76848;SDS011;65814;51.134;16.980;2023-04-08T00:38:35;22.70;;;13.00;;
76848;SDS011;65814;51.134;16.980;2023-04-08T00:41:03;26.00;;;13.10;;
76848;SDS011;65814;51.134;16.980;2023-04-08T00:43:31;25.40;;;12.60;;
76848;SDS011;65814;51.134;16.980;2023-04-08T00:45:58;23.10;;;12.90;;
76848;SDS011;65814;51.134;16.980;2023-04-08T00:48:27;22.40;;;12.90;;
76848;SDS011;65814;51.134;16.980;2023-04-08T00:50:56;22.90;;;12.80;;
76848;SDS011;65814;51.134;16.980;2023-04-08T00:53:26;23.70;;;12.00;;
76848;SDS011;65814;51.134;16.980;2023-04-08T00:55:54;24.70;;;11.60;;
76848;SDS011;65814;51.134;16.980;2023-04-08T00:58:22;22.90;;;13.50;;
76848;SDS011;65814;51.134;16.980;2023-04-08T01:00:52;25.80;;;12.70;;
76848;SDS011;65814;51.134;16.980;2023-04-08T01:06:00;26.30;;;14.40;;
76848;SDS011;65814;51.134;16.980;2023-04-08T01:08:38;28.60;;;13.60;;
76848;SDS011;65814;51.134;16.980;2023-04-08T01:11:09;30.90;;;15.10;;
76848;SDS011;65814;51.134;16.980;2023-04-08T01:13:38;28.20;;;15.50;;
76848;SDS011;65814;51.134;16.980;2023-04-08T01:16:08;30.60;;;15.60;;
76848;SDS011;65814;51.134;16.980;2023-04-08T01:18:38;27.10;;;15.30;;
76848;SDS011;65814;51.134;16.980;2023-04-08T01:21:08;28.20;;;13.80;;
76848;SDS011;65814;51.134;16.980;2023-04-08T01:23:42;23.90;;;14.40;;
76848;SDS011;65814;51.134;16.980;2023-04-08T01:26:22;26.80;;;13.60;;
76848;SDS011;65814;51.134;16.980;2023-04-08T01:28:55;24.70;;;13.20;;
76848;SDS011;65814;51.134;16.980;2023-04-08T01:31:25;29.90;;;14.80;;
76848;SDS011;65814;51.134;16.980;2023-04-08T01:33:54;29.40;;;13.70;;
76848;SDS011;65814;51.134;16.980;2023-04-08T01:36:23;24.50;;;13.60;;
76848;SDS011;65814;51.134;16.980;2023-04-08T01:38:51;29.90;;;13.50;;
76848;SDS011;65814;51.134;16.980;2023-04-08T01:41:19;26.00;;;13.40;;
76848;SDS011;65814;51.134;16.980;2023-04-08T01:43:47;29.50;;;16.50;;
76848;SDS011;65814;51.134;16.980;2023-04-08T01:46:16;32.90;;;17.30;;
76848;SDS011;65814;51.134;16.980;2023-04-08T01:48:45;34.10;;;16.70;;
76848;SDS011;65814;51.134;16.980;2023-04-08T01:51:15;35.70;;;18.60;;
76848;SDS011;65814;51.134;16.980;2023-04-08T01:53:46;28.90;;;16.60;;
76848;SDS011;65814;51.134;16.980;2023-04-08T01:56:14;37.30;;;16.90;;
76848;SDS011;65814;51.134;16.980;2023-04-08T01:58:45;36.50;;;17.50;;
76848;SDS011;65814;51.134;16.980;2023-04-08T02:01:17;34.90;;;18.10;;
76848;SDS011;65814;51.134;16.980;2023-04-08T02:03:47;31.80;;;16.90;;
76848;SDS011;65814;51.134;16.980;2023-04-08T02:06:18;34.40;;;15.90;;
76848;SDS011;65814;51.134;16.980;2023-04-08T02:08:46;34.10;;;17.90;;
76848;SDS011;65814;51.134;16.980;2023-04-08T02:11:14;33.00;;;17.80;;
76848;SDS011;65814;51.134;16.980;2023-04-08T02:13:43;31.60;;;14.70;;
76848;SDS011;65814;51.134;16.980;2023-04-08T02:16:15;29.40;;;15.20;;
76848;SDS011;65814;51.134;16.980;2023-04-08T02:19:13;28.80;;;15.20;;
76848;SDS011;65814;51.134;16.980;2023-04-08T02:21:54;29.40;;;15.10;;
76848;SDS011;65814;51.134;16.980;2023-04-08T02:24:26;34.70;;;17.40;;
76848;SDS011;65814;51.134;16.980;2023-04-08T02:26:55;37.60;;;21.80;;
76848;SDS011;65814;51.134;16.980;2023-04-08T02:29:24;33.90;;;17.30;;
76848;SDS011;65814;51.134;16.980;2023-04-08T02:31:53;31.80;;;16.90;;
76848;SDS011;65814;51.134;16.980;2023-04-08T02:34:21;28.60;;;15.50;;
76848;SDS011;65814;51.134;16.980;2023-04-08T02:36:50;28.50;;;13.90;;
76848;SDS011;65814;51.134;16.980;2023-04-08T02:39:19;26.20;;;13.10;;
76848;SDS011;65814;51.134;16.980;2023-04-08T02:41:47;29.60;;;14.40;;
76848;SDS011;65814;51.134;16.980;2023-04-08T02:44:15;27.40;;;14.50;;
76848;SDS011;65814;51.134;16.980;2023-04-08T02:46:43;32.30;;;15.60;;
76848;SDS011;65814;51.134;16.980;2023-04-08T02:49:11;26.00;;;14.60;;
76848;SDS011;65814;51.134;16.980;2023-04-08T02:51:39;25.20;;;15.10;;
76848;SDS011;65814;51.134;16.980;2023-04-08T02:54:07;42.20;;;18.40;;
76848;SDS011;65814;51.134;16.980;2023-04-08T02:56:35;41.60;;;19.60;;
76848;SDS011;65814;51.134;16.980;2023-04-08T02:59:03;37.30;;;16.80;;
76848;SDS011;65814;51.134;16.980;2023-04-08T03:01:31;32.10;;;16.20;;
76848;SDS011;65814;51.134;16.980;2023-04-08T03:04:02;25.80;;;15.50;;
76848;SDS011;65814;51.134;16.980;2023-04-08T03:06:29;32.90;;;17.10;;
76848;SDS011;65814;51.134;16.980;2023-04-08T03:08:58;27.80;;;13.90;;
76848;SDS011;65814;51.134;16.980;2023-04-08T03:11:26;23.60;;;13.80;;
76848;SDS011;65814;51.134;16.980;2023-04-08T03:13:54;26.40;;;15.40;;
76848;SDS011;65814;51.134;16.980;2023-04-08T03:16:23;24.90;;;13.20;;
76848;SDS011;65814;51.134;16.980;2023-04-08T03:18:51;26.90;;;14.60;;
76848;SDS011;65814;51.134;16.980;2023-04-08T03:21:19;24.70;;;13.50;;
76848;SDS011;65814;51.134;16.980;2023-04-08T03:23:47;29.50;;;15.10;;
76848;SDS011;65814;51.134;16.980;2023-04-08T03:26:15;24.80;;;13.70;;
76848;SDS011;65814;51.134;16.980;2023-04-08T03:28:43;24.90;;;15.20;;
76848;SDS011;65814;51.134;16.980;2023-04-08T03:31:11;25.50;;;15.10;;
76848;SDS011;65814;51.134;16.980;2023-04-08T03:33:39;24.50;;;13.70;;
76848;SDS011;65814;51.134;16.980;2023-04-08T03:36:07;25.50;;;14.70;;
76848;SDS011;65814;51.134;16.980;2023-04-08T03:38:35;25.00;;;13.40;;
76848;SDS011;65814;51.134;16.980;2023-04-08T03:41:03;23.00;;;13.00;;
76848;SDS011;65814;51.134;16.980;2023-04-08T03:43:31;27.40;;;13.50;;
76848;SDS011;65814;51.134;16.980;2023-04-08T03:45:59;29.10;;;14.10;;
76848;SDS011;65814;51.134;16.980;2023-04-08T03:48:27;29.30;;;14.50;;
76848;SDS011;65814;51.134;16.980;2023-04-08T03:50:55;19.80;;;12.60;;
76848;SDS011;65814;51.134;16.980;2023-04-08T03:53:23;20.70;;;12.00;;
76848;SDS011;65814;51.134;16.980;2023-04-08T03:55:51;18.60;;;11.10;;
76848;SDS011;65814;51.134;16.980;2023-04-08T03:58:19;18.90;;;11.00;;
76848;SDS011;65814;51.134;16.980;2023-04-08T04:00:47;19.00;;;10.40;;
76848;SDS011;65814;51.134;16.980;2023-04-08T04:03:15;19.90;;;10.90;;
76848;SDS011;65814;51.134;16.980;2023-04-08T04:05:43;24.80;;;14.60;;
76848;SDS011;65814;51.134;16.980;2023-04-08T04:08:11;20.00;;;12.10;;
76848;SDS011;65814;51.134;16.980;2023-04-08T04:10:39;19.30;;;12.40;;
76848;SDS011;65814;51.134;16.980;2023-04-08T04:13:07;20.70;;;12.10;;
76848;SDS011;65814;51.134;16.980;2023-04-08T04:15:39;20.30;;;12.30;;
76848;SDS011;65814;51.134;16.980;2023-04-08T04:18:07;24.40;;;12.30;;
76848;SDS011;65814;51.134;16.980;2023-04-08T04:20:38;24.30;;;13.20;;
76848;SDS011;65814;51.134;16.980;2023-04-08T04:23:09;23.00;;;13.40;;
76848;SDS011;65814;51.134;16.980;2023-04-08T04:25:39;28.40;;;14.30;;
76848;SDS011;65814;51.134;16.980;2023-04-08T04:28:08;26.20;;;15.00;;
76848;SDS011;65814;51.134;16.980;2023-04-08T04:30:38;27.00;;;14.90;;
76848;SDS011;65814;51.134;16.980;2023-04-08T04:33:06;29.10;;;15.60;;
76848;SDS011;65814;51.134;16.980;2023-04-08T04:35:34;24.90;;;13.90;;
76848;SDS011;65814;51.134;16.980;2023-04-08T04:38:02;26.80;;;13.30;;
76848;SDS011;65814;51.134;16.980;2023-04-08T04:40:34;25.70;;;14.80;;
76848;SDS011;65814;51.134;16.980;2023-04-08T04:43:02;26.20;;;14.80;;
76848;SDS011;65814;51.134;16.980;2023-04-08T04:45:30;25.90;;;14.50;;
76848;SDS011;65814;51.134;16.980;2023-04-08T04:47:58;31.80;;;18.10;;
76848;SDS011;65814;51.134;16.980;2023-04-08T04:50:26;30.80;;;16.50;;
76848;SDS011;65814;51.134;16.980;2023-04-08T04:52:54;28.00;;;15.60;;
76848;SDS011;65814;51.134;16.980;2023-04-08T04:55:22;29.20;;;14.80;;
76848;SDS011;65814;51.134;16.980;2023-04-08T04:57:50;24.60;;;14.60;;
76848;SDS011;65814;51.134;16.980;2023-04-08T05:00:18;25.00;;;14.40;;
76848;SDS011;65814;51.134;16.980;2023-04-08T05:02:46;23.30;;;14.50;;
76848;SDS011;65814;51.134;16.980;2023-04-08T05:05:14;27.70;;;14.80;;
76848;SDS011;65814;51.134;16.980;2023-04-08T05:07:43;25.70;;;15.30;;
76848;SDS011;65814;51.134;16.980;2023-04-08T05:10:11;26.80;;;15.50;;
76848;SDS011;65814;51.134;16.980;2023-04-08T05:12:39;29.90;;;16.30;;
76848;SDS011;65814;51.134;16.980;2023-04-08T05:15:07;23.60;;;15.90;;
76848;SDS011;65814;51.134;16.980;2023-04-08T05:17:35;26.40;;;15.00;;
76848;SDS011;65814;51.134;16.980;2023-04-08T05:20:03;24.90;;;14.30;;
76848;SDS011;65814;51.134;16.980;2023-04-08T05:22:32;24.30;;;13.60;;
76848;SDS011;65814;51.134;16.980;2023-04-08T05:25:01;26.30;;;16.00;;
76848;SDS011;65814;51.134;16.980;2023-04-08T05:27:29;29.00;;;16.60;;
76848;SDS011;65814;51.134;16.980;2023-04-08T05:29:57;30.20;;;15.80;;
76848;SDS011;65814;51.134;16.980;2023-04-08T05:32:24;29.20;;;16.50;;
76848;SDS011;65814;51.134;16.980;2023-04-08T05:34:53;28.80;;;15.30;;
76848;SDS011;65814;51.134;16.980;2023-04-08T05:37:24;29.00;;;16.00;;
76848;SDS011;65814;51.134;16.980;2023-04-08T05:39:52;24.90;;;14.40;;
76848;SDS011;65814;51.134;16.980;2023-04-08T05:42:20;28.70;;;15.30;;
76848;SDS011;65814;51.134;16.980;2023-04-08T05:44:48;20.80;;;14.00;;
76848;SDS011;65814;51.134;16.980;2023-04-08T05:47:16;21.90;;;13.70;;
76848;SDS011;65814;51.134;16.980;2023-04-08T05:49:44;23.00;;;14.10;;
76848;SDS011;65814;51.134;16.980;2023-04-08T05:52:12;25.20;;;14.90;;
76848;SDS011;65814;51.134;16.980;2023-04-08T05:54:43;23.50;;;15.60;;
76848;SDS011;65814;51.134;16.980;2023-04-08T05:57:11;19.90;;;12.00;;
76848;SDS011;65814;51.134;16.980;2023-04-08T05:59:39;21.90;;;13.30;;
76848;SDS011;65814;51.134;16.980;2023-04-08T06:02:07;20.70;;;12.40;;
76848;SDS011;65814;51.134;16.980;2023-04-08T06:04:35;24.00;;;13.00;;
76848;SDS011;65814;51.134;16.980;2023-04-08T06:07:03;23.70;;;13.10;;
76848;SDS011;65814;51.134;16.980;2023-04-08T06:09:35;23.40;;;13.10;;
76848;SDS011;65814;51.134;16.980;2023-04-08T06:12:04;19.80;;;12.50;;
76848;SDS011;65814;51.134;16.980;2023-04-08T06:14:32;22.40;;;14.10;;
76848;SDS011;65814;51.134;16.980;2023-04-08T06:17:00;23.20;;;12.50;;
76848;SDS011;65814;51.134;16.980;2023-04-08T06:19:29;19.60;;;12.50;;
76848;SDS011;65814;51.134;16.980;2023-04-08T06:21:57;20.60;;;12.50;;
76848;SDS011;65814;51.134;16.980;2023-04-08T06:24:25;21.60;;;13.00;;
76848;SDS011;65814;51.134;16.980;2023-04-08T06:26:54;22.10;;;14.20;;
76848;SDS011;65814;51.134;16.980;2023-04-08T06:29:22;23.00;;;13.90;;
76848;SDS011;65814;51.134;16.980;2023-04-08T06:31:50;21.40;;;13.40;;
76848;SDS011;65814;51.134;16.980;2023-04-08T06:34:19;26.10;;;15.60;;
76848;SDS011;65814;51.134;16.980;2023-04-08T06:36:47;23.40;;;14.10;;
76848;SDS011;65814;51.134;16.980;2023-04-08T06:39:16;24.60;;;15.10;;
76848;SDS011;65814;51.134;16.980;2023-04-08T06:41:46;28.20;;;15.70;;
76848;SDS011;65814;51.134;16.980;2023-04-08T06:44:14;27.00;;;15.10;;
76848;SDS011;65814;51.134;16.980;2023-04-08T06:46:42;34.70;;;16.70;;
76848;SDS011;65814;51.134;16.980;2023-04-08T06:49:11;25.70;;;14.90;;
76848;SDS011;65814;51.134;16.980;2023-04-08T06:51:39;28.80;;;16.70;;
76848;SDS011;65814;51.134;16.980;2023-04-08T06:54:07;32.10;;;16.30;;
76848;SDS011;65814;51.134;16.980;2023-04-08T06:56:36;27.40;;;16.10;;
76848;SDS011;65814;51.134;16.980;2023-04-08T06:59:04;26.30;;;15.50;;
76848;SDS011;65814;51.134;16.980;2023-04-08T07:01:32;26.60;;;15.00;;
76848;SDS011;65814;51.134;16.980;2023-04-08T07:04:01;24.20;;;14.00;;
76848;SDS011;65814;51.134;16.980;2023-04-08T07:06:29;27.60;;;14.90;;
76848;SDS011;65814;51.134;16.980;2023-04-08T07:08:57;26.40;;;14.40;;
76848;SDS011;65814;51.134;16.980;2023-04-08T07:11:25;24.90;;;14.50;;
76848;SDS011;65814;51.134;16.980;2023-04-08T07:13:53;21.60;;;13.30;;
76848;SDS011;65814;51.134;16.980;2023-04-08T07:16:21;24.80;;;14.00;;
76848;SDS011;65814;51.134;16.980;2023-04-08T07:18:50;24.70;;;14.90;;
76848;SDS011;65814;51.134;16.980;2023-04-08T07:21:18;24.90;;;14.10;;
76848;SDS011;65814;51.134;16.980;2023-04-08T07:23:46;25.10;;;13.60;;
76848;SDS011;65814;51.134;16.980;2023-04-08T07:26:14;25.00;;;13.10;;
76848;SDS011;65814;51.134;16.980;2023-04-08T07:28:42;23.80;;;13.60;;
76848;SDS011;65814;51.134;16.980;2023-04-08T07:31:17;25.90;;;14.90;;
76848;SDS011;65814;51.134;16.980;2023-04-08T07:33:45;23.70;;;14.10;;
76848;SDS011;65814;51.134;16.980;2023-04-08T07:36:13;22.60;;;13.50;;
76848;SDS011;65814;51.134;16.980;2023-04-08T07:38:42;23.20;;;14.30;;
76848;SDS011;65814;51.134;16.980;2023-04-08T07:41:10;21.80;;;12.30;;
76848;SDS011;65814;51.134;16.980;2023-04-08T07:43:38;21.50;;;12.50;;
76848;SDS011;65814;51.134;16.980;2023-04-08T07:46:06;19.70;;;11.40;;
76848;SDS011;65814;51.134;16.980;2023-04-08T07:48:35;21.60;;;12.00;;
76848;SDS011;65814;51.134;16.980;2023-04-08T07:51:04;19.30;;;10.80;;
76848;SDS011;65814;51.134;16.980;2023-04-08T07:53:37;20.20;;;11.90;;
76848;SDS011;65814;51.134;16.980;2023-04-08T07:56:11;21.00;;;12.00;;
76848;SDS011;65814;51.134;16.980;2023-04-08T07:58:40;21.50;;;11.90;;
76848;SDS011;65814;51.134;16.980;2023-04-08T08:01:18;22.80;;;12.90;;
76848;SDS011;65814;51.134;16.980;2023-04-08T08:03:49;20.50;;;12.30;;
76848;SDS011;65814;51.134;16.980;2023-04-08T08:06:19;21.30;;;12.30;;
76848;SDS011;65814;51.134;16.980;2023-04-08T08:08:47;22.30;;;12.90;;
76848;SDS011;65814;51.134;16.980;2023-04-08T08:11:15;23.60;;;13.50;;
76848;SDS011;65814;51.134;16.980;2023-04-08T08:13:43;24.60;;;14.40;;
76848;SDS011;65814;51.134;16.980;2023-04-08T08:16:11;25.00;;;14.70;;
76848;SDS011;65814;51.134;16.980;2023-04-08T08:18:39;22.10;;;13.00;;
76848;SDS011;65814;51.134;16.980;2023-04-08T08:21:08;24.90;;;14.70;;
76848;SDS011;65814;51.134;16.980;2023-04-08T08:23:36;23.20;;;14.50;;
76848;SDS011;65814;51.134;16.980;2023-04-08T08:26:05;21.50;;;12.20;;
76848;SDS011;65814;51.134;16.980;2023-04-08T08:28:37;25.10;;;14.30;;
76848;SDS011;65814;51.134;16.980;2023-04-08T08:31:06;19.40;;;12.80;;
76848;SDS011;65814;51.134;16.980;2023-04-08T08:33:34;21.70;;;11.40;;
76848;SDS011;65814;51.134;16.980;2023-04-08T08:36:02;22.70;;;12.70;;
76848;SDS011;65814;51.134;16.980;2023-04-08T08:38:32;20.60;;;12.20;;
76848;SDS011;65814;51.134;16.980;2023-04-08T08:41:00;20.60;;;11.80;;
76848;SDS011;65814;51.134;16.980;2023-04-08T08:43:30;19.90;;;11.90;;
76848;SDS011;65814;51.134;16.980;2023-04-08T08:46:01;16.00;;;11.80;;
76848;SDS011;65814;51.134;16.980;2023-04-08T08:48:30;16.80;;;11.50;;
76848;SDS011;65814;51.134;16.980;2023-04-08T08:50:59;20.30;;;10.60;;
76848;SDS011;65814;51.134;16.980;2023-04-08T08:53:28;17.70;;;10.80;;
76848;SDS011;65814;51.134;16.980;2023-04-08T08:56:00;17.30;;;11.50;;
76848;SDS011;65814;51.134;16.980;2023-04-08T08:58:31;17.60;;;11.60;;
76848;SDS011;65814;51.134;16.980;2023-04-08T09:00:59;18.90;;;11.70;;
76848;SDS011;65814;51.134;16.980;2023-04-08T09:03:27;20.10;;;11.80;;
76848;SDS011;65814;51.134;16.980;2023-04-08T09:05:57;17.60;;;11.10;;
76848;SDS011;65814;51.134;16.980;2023-04-08T09:08:36;17.60;;;11.40;;
76848;SDS011;65814;51.134;16.980;2023-04-08T09:11:17;18.20;;;10.60;;
76848;SDS011;65814;51.134;16.980;2023-04-08T09:13:46;15.80;;;10.60;;
76848;SDS011;65814;51.134;16.980;2023-04-08T09:16:15;16.80;;;10.70;;
76848;SDS011;65814;51.134;16.980;2023-04-08T09:18:45;17.20;;;11.80;;
76848;SDS011;65814;51.134;16.980;2023-04-08T09:21:16;17.60;;;10.30;;
76848;SDS011;65814;51.134;16.980;2023-04-08T09:23:49;18.10;;;10.90;;
76848;SDS011;65814;51.134;16.980;2023-04-08T09:26:19;20.10;;;11.40;;
76848;SDS011;65814;51.134;16.980;2023-04-08T09:28:58;19.90;;;11.40;;
76848;SDS011;65814;51.134;16.980;2023-04-08T09:31:45;19.30;;;11.30;;
76848;SDS011;65814;51.134;16.980;2023-04-08T09:34:14;20.60;;;11.50;;
76848;SDS011;65814;51.134;16.980;2023-04-08T09:36:48;22.40;;;12.30;;
76848;SDS011;65814;51.134;16.980;2023-04-08T09:39:17;18.10;;;11.80;;
76848;SDS011;65814;51.134;16.980;2023-04-08T09:41:49;19.80;;;11.30;;
76848;SDS011;65814;51.134;16.980;2023-04-08T09:44:19;18.60;;;11.90;;
76848;SDS011;65814;51.134;16.980;2023-04-08T09:52:12;19.20;;;11.50;;
76848;SDS011;65814;51.134;16.980;2023-04-08T09:57:39;20.30;;;11.80;;
76848;SDS011;65814;51.134;16.980;2023-04-08T10:00:19;19.60;;;12.30;;
76848;SDS011;65814;51.134;16.980;2023-04-08T10:02:55;22.00;;;13.70;;
76848;SDS011;65814;51.134;16.980;2023-04-08T10:05:29;20.90;;;12.80;;
76848;SDS011;65814;51.134;16.980;2023-04-08T10:08:00;20.80;;;12.30;;
76848;SDS011;65814;51.134;16.980;2023-04-08T10:10:28;21.10;;;12.80;;
76848;SDS011;65814;51.134;16.980;2023-04-08T10:12:57;21.80;;;11.70;;
76848;SDS011;65814;51.134;16.980;2023-04-08T10:15:28;19.50;;;11.40;;
76848;SDS011;65814;51.134;16.980;2023-04-08T10:23:03;21.60;;;14.10;;
76848;SDS011;65814;51.134;16.980;2023-04-08T10:25:34;22.30;;;12.30;;
76848;SDS011;65814;51.134;16.980;2023-04-08T10:33:10;24.50;;;13.50;;
76848;SDS011;65814;51.134;16.980;2023-04-08T10:35:46;19.10;;;12.30;;
76848;SDS011;65814;51.134;16.980;2023-04-08T10:38:16;20.20;;;13.60;;
76848;SDS011;65814;51.134;16.980;2023-04-08T10:40:44;20.80;;;12.20;;
76848;SDS011;65814;51.134;16.980;2023-04-08T10:43:12;21.90;;;12.30;;
76848;SDS011;65814;51.134;16.980;2023-04-08T10:45:42;22.10;;;12.70;;
76848;SDS011;65814;51.134;16.980;2023-04-08T10:50:44;20.80;;;13.50;;
76848;SDS011;65814;51.134;16.980;2023-04-08T10:53:35;20.10;;;12.60;;
76848;SDS011;65814;51.134;16.980;2023-04-08T10:56:06;21.20;;;13.50;;
76848;SDS011;65814;51.134;16.980;2023-04-08T10:58:35;24.10;;;12.80;;
76848;SDS011;65814;51.134;16.980;2023-04-08T11:01:04;20.20;;;13.00;;
76848;SDS011;65814;51.134;16.980;2023-04-08T11:03:34;19.10;;;12.70;;
76848;SDS011;65814;51.134;16.980;2023-04-08T11:06:04;21.60;;;13.00;;
76848;SDS011;65814;51.134;16.980;2023-04-08T11:08:32;23.20;;;14.20;;
76848;SDS011;65814;51.134;16.980;2023-04-08T11:11:01;22.70;;;13.40;;
76848;SDS011;65814;51.134;16.980;2023-04-08T11:13:30;92.80;;;36.90;;
76848;SDS011;65814;51.134;16.980;2023-04-08T11:15:59;212.60;;;85.70;;
76848;SDS011;65814;51.134;16.980;2023-04-08T11:18:29;85.60;;;40.50;;
76848;SDS011;65814;51.134;16.980;2023-04-08T11:20:57;38.80;;;20.80;;
76848;SDS011;65814;51.134;16.980;2023-04-08T11:23:26;27.80;;;16.40;;
76848;SDS011;65814;51.134;16.980;2023-04-08T11:25:55;25.50;;;15.10;;
76848;SDS011;65814;51.134;16.980;2023-04-08T11:28:23;31.70;;;19.60;;
76848;SDS011;65814;51.134;16.980;2023-04-08T11:30:52;26.50;;;16.10;;
76848;SDS011;65814;51.134;16.980;2023-04-08T11:33:23;23.40;;;14.10;;
76848;SDS011;65814;51.134;16.980;2023-04-08T11:35:52;41.30;;;23.20;;
76848;SDS011;65814;51.134;16.980;2023-04-08T11:38:22;29.20;;;16.10;;
76848;SDS011;65814;51.134;16.980;2023-04-08T11:40:54;27.10;;;15.60;;
76848;SDS011;65814;51.134;16.980;2023-04-08T11:43:23;29.10;;;20.50;;
76848;SDS011;65814;51.134;16.980;2023-04-08T11:45:53;27.80;;;17.20;;
76848;SDS011;65814;51.134;16.980;2023-04-08T11:48:21;28.00;;;15.70;;
76848;SDS011;65814;51.134;16.980;2023-04-08T11:51:01;25.30;;;17.40;;
76848;SDS011;65814;51.134;16.980;2023-04-08T11:53:32;23.00;;;14.90;;
76848;SDS011;65814;51.134;16.980;2023-04-08T11:56:21;23.80;;;13.30;;
76848;SDS011;65814;51.134;16.980;2023-04-08T11:58:50;21.50;;;13.20;;
76848;SDS011;65814;51.134;16.980;2023-04-08T12:01:18;21.60;;;13.90;;
76848;SDS011;65814;51.134;16.980;2023-04-08T12:04:21;20.60;;;12.60;;
76848;SDS011;65814;51.134;16.980;2023-04-08T12:06:42;22.60;;;15.30;;
76848;SDS011;65814;51.134;16.980;2023-04-08T12:09:13;22.90;;;13.00;;
76848;SDS011;65814;51.134;16.980;2023-04-08T12:11:41;20.20;;;12.20;;
76848;SDS011;65814;51.134;16.980;2023-04-08T12:14:09;23.10;;;15.10;;
76848;SDS011;65814;51.134;16.980;2023-04-08T12:16:37;25.30;;;17.30;;
76848;SDS011;65814;51.134;16.980;2023-04-08T12:19:05;19.80;;;12.90;;
76848;SDS011;65814;51.134;16.980;2023-04-08T12:21:33;20.00;;;12.90;;
76848;SDS011;65814;51.134;16.980;2023-04-08T12:24:01;19.80;;;12.70;;
76848;SDS011;65814;51.134;16.980;2023-04-08T12:26:29;24.50;;;14.20;;
76848;SDS011;65814;51.134;16.980;2023-04-08T12:28:57;20.20;;;12.80;;
76848;SDS011;65814;51.134;16.980;2023-04-08T12:31:25;25.00;;;13.90;;
76848;SDS011;65814;51.134;16.980;2023-04-08T12:33:55;20.40;;;12.80;;
76848;SDS011;65814;51.134;16.980;2023-04-08T12:36:23;21.80;;;12.60;;
76848;SDS011;65814;51.134;16.980;2023-04-08T12:38:51;18.60;;;12.30;;
76848;SDS011;65814;51.134;16.980;2023-04-08T12:41:19;19.80;;;12.70;;
76848;SDS011;65814;51.134;16.980;2023-04-08T12:43:47;17.50;;;11.40;;
76848;SDS011;65814;51.134;16.980;2023-04-08T12:46:15;21.70;;;17.20;;
76848;SDS011;65814;51.134;16.980;2023-04-08T12:48:43;16.20;;;11.80;;
76848;SDS011;65814;51.134;16.980;2023-04-08T12:51:14;18.10;;;12.20;;
76848;SDS011;65814;51.134;16.980;2023-04-08T12:53:42;17.60;;;13.30;;
76848;SDS011;65814;51.134;16.980;2023-04-08T12:56:09;16.50;;;11.40;;
76848;SDS011;65814;51.134;16.980;2023-04-08T12:58:37;19.00;;;11.60;;
76848;SDS011;65814;51.134;16.980;2023-04-08T13:01:05;15.70;;;11.10;;
76848;SDS011;65814;51.134;16.980;2023-04-08T13:03:33;16.10;;;12.20;;
76848;SDS011;65814;51.134;16.980;2023-04-08T13:06:03;16.80;;;10.40;;
76848;SDS011;65814;51.134;16.980;2023-04-08T13:08:30;15.60;;;10.10;;
76848;SDS011;65814;51.134;16.980;2023-04-08T13:10:58;17.80;;;11.10;;
76848;SDS011;65814;51.134;16.980;2023-04-08T13:13:26;16.90;;;10.20;;
76848;SDS011;65814;51.134;16.980;2023-04-08T13:15:55;18.10;;;12.10;;
76848;SDS011;65814;51.134;16.980;2023-04-08T13:18:23;20.90;;;14.30;;
76848;SDS011;65814;51.134;16.980;2023-04-08T13:20:50;35.00;;;18.90;;
76848;SDS011;65814;51.134;16.980;2023-04-08T13:23:18;33.20;;;18.00;;
76848;SDS011;65814;51.134;16.980;2023-04-08T13:25:48;29.60;;;16.40;;
76848;SDS011;65814;51.134;16.980;2023-04-08T13:28:16;29.10;;;17.10;;
76848;SDS011;65814;51.134;16.980;2023-04-08T13:30:44;34.90;;;18.10;;
76848;SDS011;65814;51.134;16.980;2023-04-08T13:33:12;32.10;;;17.90;;
76848;SDS011;65814;51.134;16.980;2023-04-08T13:35:39;14.70;;;10.90;;
76848;SDS011;65814;51.134;16.980;2023-04-08T13:38:07;17.20;;;10.90;;
76848;SDS011;65814;51.134;16.980;2023-04-08T13:40:35;21.00;;;11.60;;
76848;SDS011;65814;51.134;16.980;2023-04-08T13:43:04;12.90;;;9.80;;
76848;SDS011;65814;51.134;16.980;2023-04-08T13:45:32;15.40;;;10.30;;
76848;SDS011;65814;51.134;16.980;2023-04-08T13:48:00;14.00;;;10.30;;
76848;SDS011;65814;51.134;16.980;2023-04-08T13:50:28;15.80;;;10.10;;
76848;SDS011;65814;51.134;16.980;2023-04-08T13:52:55;17.70;;;10.80;;
76848;SDS011;65814;51.134;16.980;2023-04-08T13:55:24;14.40;;;10.00;;
76848;SDS011;65814;51.134;16.980;2023-04-08T13:57:52;18.60;;;11.00;;
76848;SDS011;65814;51.134;16.980;2023-04-08T14:00:20;16.90;;;11.00;;
76848;SDS011;65814;51.134;16.980;2023-04-08T14:02:49;15.40;;;11.40;;
76848;SDS011;65814;51.134;16.980;2023-04-08T14:05:18;14.50;;;9.50;;
76848;SDS011;65814;51.134;16.980;2023-04-08T14:07:46;13.30;;;8.80;;
76848;SDS011;65814;51.134;16.980;2023-04-08T14:10:14;15.70;;;11.00;;
76848;SDS011;65814;51.134;16.980;2023-04-08T14:12:44;15.60;;;10.10;;
76848;SDS011;65814;51.134;16.980;2023-04-08T14:15:13;16.90;;;10.80;;
76848;SDS011;65814;51.134;16.980;2023-04-08T14:17:41;14.40;;;10.10;;
76848;SDS011;65814;51.134;16.980;2023-04-08T14:20:10;18.20;;;10.80;;
76848;SDS011;65814;51.134;16.980;2023-04-08T14:22:38;13.60;;;9.80;;
76848;SDS011;65814;51.134;16.980;2023-04-08T14:25:06;16.60;;;11.50;;
76848;SDS011;65814;51.134;16.980;2023-04-08T14:27:34;15.90;;;10.60;;
76848;SDS011;65814;51.134;16.980;2023-04-08T14:30:16;16.90;;;11.00;;
76848;SDS011;65814;51.134;16.980;2023-04-08T14:32:44;16.60;;;11.10;;
76848;SDS011;65814;51.134;16.980;2023-04-08T14:35:13;16.40;;;11.90;;
76848;SDS011;65814;51.134;16.980;2023-04-08T14:37:41;16.00;;;10.50;;
76848;SDS011;65814;51.134;16.980;2023-04-08T14:40:09;14.60;;;10.60;;
76848;SDS011;65814;51.134;16.980;2023-04-08T14:42:37;14.00;;;9.50;;
76848;SDS011;65814;51.134;16.980;2023-04-08T14:45:05;23.70;;;13.20;;